createdAt,value
2018-01-23T00:00:45.073Z,29
2018-01-23T00:01:48.011Z,28.9
2018-01-23T00:02:45.206Z,29
2018-01-23T00:03:45.256Z,29
2018-01-23T00:04:47.916Z,29
2018-01-23T00:05:47.882Z,29
2018-01-23T00:06:45.025Z,29
2018-01-23T00:07:45.099Z,29
2018-01-23T00:08:48.007Z,29
2018-01-23T00:09:48.395Z,29
2018-01-23T00:10:48.448Z,29
2018-01-23T00:11:45.221Z,29
2018-01-23T00:12:45.627Z,29
2018-01-23T00:13:48.582Z,28.9
2018-01-23T00:14:45.758Z,29
2018-01-23T00:15:45.826Z,28.9
2018-01-23T00:16:45.556Z,29
2018-01-23T00:17:48.393Z,28.9
2018-01-23T00:18:48.792Z,29
2018-01-23T00:19:45.680Z,28.9
2018-01-23T00:20:48.952Z,29
2018-01-23T00:21:46.137Z,29
2018-01-23T00:22:46.264Z,29
2018-01-23T00:23:48.839Z,28.9
2018-01-23T00:24:49.238Z,29
2018-01-23T00:25:46.059Z,28.9
2018-01-23T00:26:46.048Z,29
2018-01-23T00:27:46.139Z,29
2018-01-23T00:28:46.451Z,29
2018-01-23T00:29:49.372Z,29
2018-01-23T00:30:46.318Z,29
2018-01-23T00:31:46.625Z,29
2018-01-23T00:32:46.681Z,29
2018-01-23T00:33:49.709Z,29
2018-01-23T00:34:49.652Z,29
2018-01-23T00:35:46.574Z,29
2018-01-23T00:36:46.628Z,29
2018-01-23T00:37:49.875Z,28.9
2018-01-23T00:38:47.076Z,28.9
2018-01-23T00:39:49.693Z,28.9
2018-01-23T00:40:49.653Z,28.9
2018-01-23T00:41:50.046Z,28.9
2018-01-23T00:42:46.920Z,28.9
2018-01-23T00:43:47.288Z,28.9
2018-01-23T00:44:47.066Z,28.9
2018-01-23T00:45:47.095Z,28.9
2018-01-23T00:46:47.492Z,28.9
2018-01-23T00:47:47.211Z,28.9
2018-01-23T00:48:50.093Z,28.9
2018-01-23T00:49:50.461Z,28.9
2018-01-23T00:50:47.306Z,28.9
2018-01-23T00:51:50.543Z,29
2018-01-23T00:52:47.348Z,28.9
2018-01-23T00:53:50.645Z,28.9
2018-01-23T00:54:47.762Z,28.9
2018-01-23T00:55:50.754Z,28.9
2018-01-23T00:56:47.466Z,28.9
2018-01-23T00:57:47.509Z,28.9
2018-01-23T00:58:47.908Z,28.9
2018-01-23T00:59:47.979Z,28.9
2018-01-23T01:00:47.768Z,28.9
2018-01-23T01:01:50.601Z,28.9
2018-01-23T01:02:50.898Z,28.9
2018-01-23T01:03:48.108Z,29
2018-01-23T01:04:47.933Z,28.9
2018-01-23T01:05:47.943Z,28.9
2018-01-23T01:06:47.914Z,28.9
2018-01-23T01:07:50.970Z,28.9
2018-01-23T01:08:48.342Z,28.9
2018-01-23T01:09:50.930Z,28.9
2018-01-23T01:10:48.425Z,28.9
2018-01-23T01:11:48.217Z,28.9
2018-01-23T01:12:48.501Z,28.9
2018-01-23T01:13:48.595Z,28.9
2018-01-23T01:14:51.213Z,28.9
2018-01-23T01:15:51.594Z,28.9
2018-01-23T01:16:48.783Z,28.9
2018-01-23T01:17:51.388Z,28.9
2018-01-23T01:18:51.818Z,28.9
2018-01-23T01:19:51.825Z,28.9
2018-01-23T01:20:51.904Z,28.9
2018-01-23T01:21:51.585Z,28.9
2018-01-23T01:22:52.001Z,28.9
2018-01-23T01:23:51.653Z,28.9
2018-01-23T01:24:49.143Z,28.9
2018-01-23T01:25:51.788Z,28.9
2018-01-23T01:26:52.186Z,28.9
2018-01-23T01:27:48.941Z,28.9
2018-01-23T01:28:52.211Z,28.9
2018-01-23T01:29:51.949Z,28.9
2018-01-23T01:30:49.156Z,28.9
2018-01-23T01:31:49.312Z,28.9
2018-01-23T01:32:52.471Z,28.9
2018-01-23T01:33:49.663Z,28.9
2018-01-23T01:34:52.299Z,28.9
2018-01-23T01:35:49.770Z,28.9
2018-01-23T01:36:49.748Z,28.9
2018-01-23T01:37:49.822Z,28.9
2018-01-23T01:38:49.913Z,28.9
2018-01-23T01:39:50.002Z,28.9
2018-01-23T01:40:49.980Z,28.9
2018-01-23T01:41:50.083Z,28.9
2018-01-23T01:42:49.714Z,28.9
2018-01-23T01:43:49.792Z,28.9
2018-01-23T01:44:52.782Z,28.9
2018-01-23T01:45:53.190Z,28.9
2018-01-23T01:46:49.915Z,28.9
2018-01-23T01:47:50.277Z,28.9
2018-01-23T01:48:50.258Z,28.9
2018-01-23T01:49:50.019Z,28.9
2018-01-23T01:50:50.078Z,28.9
2018-01-23T01:51:50.208Z,28.9
2018-01-23T01:52:50.261Z,28.8
2018-01-23T01:53:50.695Z,28.9
2018-01-23T01:54:53.645Z,28.9
2018-01-23T01:55:53.750Z,28.9
2018-01-23T01:56:53.485Z,28.9
2018-01-23T01:57:53.535Z,28.9
2018-01-23T01:58:50.715Z,28.8
2018-01-23T01:59:50.749Z,28.8
2018-01-23T02:00:54.056Z,28.9
2018-01-23T02:01:53.717Z,28.9
2018-01-23T02:02:50.890Z,28.8
2018-01-23T02:03:50.924Z,28.9
2018-01-23T02:04:53.887Z,28.9
2018-01-23T02:05:51.105Z,28.9
2018-01-23T02:06:54.258Z,28.8
2018-01-23T02:07:53.971Z,28.9
2018-01-23T02:08:54.427Z,28.9
2018-01-23T02:09:51.275Z,28.8
2018-01-23T02:10:51.339Z,28.9
2018-01-23T02:11:51.693Z,28.9
2018-01-23T02:12:51.763Z,28.9
2018-01-23T02:13:51.464Z,28.8
2018-01-23T02:14:54.719Z,28.9
2018-01-23T02:15:51.619Z,28.9
2018-01-23T02:16:51.715Z,28.9
2018-01-23T02:17:54.944Z,28.9
2018-01-23T02:18:54.688Z,28.9
2018-01-23T02:19:55.072Z,28.8
2018-01-23T02:20:52.000Z,28.8
2018-01-23T02:21:55.234Z,28.8
2018-01-23T02:22:55.221Z,28.8
2018-01-23T02:23:52.361Z,28.8
2018-01-23T02:24:52.479Z,28.8
2018-01-23T02:25:52.161Z,28.9
2018-01-23T02:26:52.221Z,28.8
2018-01-23T02:27:52.233Z,28.9
2018-01-23T02:28:52.703Z,28.9
2018-01-23T02:29:55.597Z,28.9
2018-01-23T02:30:52.383Z,28.9
2018-01-23T02:31:52.461Z,28.9
2018-01-23T02:32:52.721Z,28.8
2018-01-23T02:33:55.340Z,28.8
2018-01-23T02:34:55.744Z,28.8
2018-01-23T02:35:52.561Z,28.8
2018-01-23T02:36:55.470Z,28.8
2018-01-23T02:37:52.648Z,28.8
2018-01-23T02:38:55.909Z,28.8
2018-01-23T02:39:53.112Z,28.8
2018-01-23T02:40:52.852Z,28.8
2018-01-23T02:41:53.252Z,28.8
2018-01-23T02:42:56.143Z,28.8
2018-01-23T02:43:56.242Z,28.8
2018-01-23T02:44:53.038Z,28.8
2018-01-23T02:45:56.035Z,28.8
2018-01-23T02:46:53.199Z,28.8
2018-01-23T02:47:53.577Z,28.8
2018-01-23T02:48:53.266Z,28.8
2018-01-23T02:49:53.328Z,28.8
2018-01-23T02:50:53.358Z,28.8
2018-01-23T02:51:53.739Z,28.8
2018-01-23T02:52:53.766Z,28.8
2018-01-23T02:53:53.471Z,28.7
2018-01-23T02:54:56.699Z,28.8
2018-01-23T02:55:56.805Z,28.8
2018-01-23T02:56:53.635Z,28.8
2018-01-23T02:57:53.945Z,28.8
2018-01-23T02:58:53.697Z,28.8
2018-01-23T02:59:54.042Z,28.8
2018-01-23T03:00:56.999Z,28.8
2018-01-23T03:01:57.079Z,28.8
2018-01-23T03:02:53.942Z,28.8
2018-01-23T03:03:57.229Z,28.8
2018-01-23T03:04:54.017Z,28.8
2018-01-23T03:05:54.052Z,28.8
2018-01-23T03:06:54.445Z,28.8
2018-01-23T03:07:57.416Z,28.8
2018-01-23T03:08:57.162Z,28.8
2018-01-23T03:09:54.338Z,28.8
2018-01-23T03:10:54.462Z,28.8
2018-01-23T03:11:54.725Z,28.8
2018-01-23T03:12:54.490Z,28.7
2018-01-23T03:13:57.429Z,28.8
2018-01-23T03:14:54.933Z,28.8
2018-01-23T03:15:54.884Z,28.8
2018-01-23T03:16:57.802Z,28.8
2018-01-23T03:17:57.888Z,28.7
2018-01-23T03:18:55.050Z,28.8
2018-01-23T03:19:58.009Z,28.8
2018-01-23T03:20:54.875Z,28.8
2018-01-23T03:21:55.277Z,28.8
2018-01-23T03:22:55.271Z,28.8
2018-01-23T03:23:57.947Z,28.8
2018-01-23T03:24:58.026Z,28.8
2018-01-23T03:25:55.532Z,28.8
2018-01-23T03:26:58.377Z,28.8
2018-01-23T03:27:55.282Z,28.8
2018-01-23T03:28:55.340Z,28.8
2018-01-23T03:29:55.712Z,28.8
2018-01-23T03:30:58.696Z,28.7
2018-01-23T03:31:55.819Z,28.7
2018-01-23T03:32:58.496Z,28.8
2018-01-23T03:33:55.682Z,28.8
2018-01-23T03:34:55.689Z,28.8
2018-01-23T03:35:56.058Z,28.8
2018-01-23T03:36:58.698Z,28.8
2018-01-23T03:37:56.172Z,28.8
2018-01-23T03:38:56.264Z,28.8
2018-01-23T03:39:59.151Z,28.8
2018-01-23T03:40:56.061Z,28.8
2018-01-23T03:41:56.355Z,28.8
2018-01-23T03:42:56.403Z,28.8
2018-01-23T03:43:56.408Z,28.7
2018-01-23T03:44:59.388Z,28.8
2018-01-23T03:45:56.182Z,28.8
2018-01-23T03:46:59.137Z,28.8
2018-01-23T03:47:56.639Z,28.8
2018-01-23T03:48:56.392Z,28.8
2018-01-23T03:49:56.755Z,28.8
2018-01-23T03:50:56.486Z,28.8
2018-01-23T03:51:59.728Z,28.8
2018-01-23T03:53:00.415Z,28.7
2018-01-23T03:53:59.761Z,28.8
2018-01-23T03:54:57.012Z,28.8
2018-01-23T03:55:56.712Z,28.8
2018-01-23T03:56:59.979Z,28.8
2018-01-23T03:58:00.008Z,28.8
2018-01-23T03:58:59.996Z,28.7
2018-01-23T03:59:56.905Z,28.7
2018-01-23T04:00:59.832Z,28.7
2018-01-23T04:01:56.989Z,28.7
2018-01-23T04:03:00.212Z,28.7
2018-01-23T04:03:57.365Z,28.7
2018-01-23T04:04:57.123Z,28.7
2018-01-23T04:06:00.060Z,28.7
2018-01-23T04:06:57.204Z,28.7
2018-01-23T04:07:57.339Z,28.7
2018-01-23T04:09:00.210Z,28.7
2018-01-23T04:10:00.223Z,28.7
2018-01-23T04:10:57.741Z,28.7
2018-01-23T04:12:00.308Z,28.7
2018-01-23T04:13:00.696Z,28.7
2018-01-23T04:14:01.476Z,28.7
2018-01-23T04:14:57.695Z,28.7
2018-01-23T04:15:57.731Z,28.7
2018-01-23T04:17:00.978Z,28.7
2018-01-23T04:18:01.043Z,28.7
2018-01-23T04:18:57.790Z,28.7
2018-01-23T04:19:57.865Z,28.7
2018-01-23T04:21:00.792Z,28.7
2018-01-23T04:22:00.801Z,28.7
2018-01-23T04:22:57.946Z,28.7
2018-01-23T04:23:57.952Z,28.7
2018-01-23T04:24:58.008Z,28.7
2018-01-23T04:26:01.510Z,28.7
2018-01-23T04:26:58.213Z,28.7
2018-01-23T04:28:02.124Z,28.7
2018-01-23T04:28:58.631Z,28.7
2018-01-23T04:30:01.290Z,28.7
2018-01-23T04:31:01.357Z,28.7
2018-01-23T04:31:58.884Z,28.7
2018-01-23T04:33:01.841Z,28.7
2018-01-23T04:33:58.991Z,28.7
2018-01-23T04:34:58.711Z,28.7
2018-01-23T04:36:01.683Z,28.7
2018-01-23T04:36:59.148Z,28.7
2018-01-23T04:38:01.689Z,28.7
2018-01-23T04:38:58.917Z,28.7
2018-01-23T04:40:02.175Z,28.7
2018-01-23T04:40:58.997Z,28.7
2018-01-23T04:41:58.945Z,28.7
2018-01-23T04:42:59.078Z,28.7
2018-01-23T04:43:59.451Z,28.7
2018-01-23T04:44:59.436Z,28.7
2018-01-23T04:45:59.440Z,28.7
2018-01-23T04:46:59.448Z,28.7
2018-01-23T04:47:59.166Z,28.7
2018-01-23T04:48:59.274Z,28.8
2018-01-23T04:49:59.572Z,28.7
2018-01-23T04:51:02.198Z,28.8
2018-01-23T04:52:00.264Z,28.7
2018-01-23T04:53:02.379Z,28.8
2018-01-23T04:54:00.541Z,28.7
2018-01-23T04:55:05.474Z,28.8
2018-01-23T04:56:00.544Z,28.8
2018-01-23T04:56:59.695Z,28.8
2018-01-23T04:58:00.078Z,28.8
2018-01-23T04:59:00.088Z,28.8
2018-01-23T05:00:00.194Z,28.7
2018-01-23T05:01:00.082Z,28.7
2018-01-23T05:02:00.225Z,28.7
2018-01-23T05:02:59.978Z,28.7
2018-01-23T05:04:00.052Z,28.7
2018-01-23T05:05:00.120Z,28.7
2018-01-23T05:06:00.652Z,28.7
2018-01-23T05:07:00.453Z,28.7
2018-01-23T05:08:00.134Z,28.7
2018-01-23T05:09:00.458Z,28.7
2018-01-23T05:10:00.519Z,28.7
2018-01-23T05:11:00.935Z,28.7
2018-01-23T05:12:00.887Z,28.7
2018-01-23T05:13:00.378Z,28.7
2018-01-23T05:14:01.232Z,28.7
2018-01-23T05:15:00.438Z,28.7
2018-01-23T05:16:00.775Z,28.7
2018-01-23T05:17:00.874Z,28.7
2018-01-23T05:18:01.307Z,28.7
2018-01-23T05:19:00.997Z,28.7
2018-01-23T05:20:01.118Z,28.7
2018-01-23T05:21:00.807Z,28.7
2018-01-23T05:22:01.224Z,28.6
2018-01-23T05:23:00.909Z,28.7
2018-01-23T05:24:01.323Z,28.7
2018-01-23T05:25:01.366Z,28.7
2018-01-23T05:26:01.124Z,28.7
2018-01-23T05:27:01.117Z,28.7
2018-01-23T05:28:01.442Z,28.7
2018-01-23T05:29:01.192Z,28.7
2018-01-23T05:30:01.233Z,28.7
2018-01-23T05:31:01.551Z,28.6
2018-01-23T05:32:01.663Z,28.7
2018-01-23T05:33:01.411Z,28.6
2018-01-23T05:34:01.756Z,28.6
2018-01-23T05:35:01.833Z,28.6
2018-01-23T05:36:01.840Z,28.6
2018-01-23T05:37:02.916Z,28.6
2018-01-23T05:38:01.609Z,28.5
2018-01-23T05:39:01.674Z,28.5
2018-01-23T05:40:01.807Z,28.5
2018-01-23T05:41:01.831Z,28.5
2018-01-23T05:42:01.870Z,28.5
2018-01-23T05:43:02.194Z,28.5
2018-01-23T05:44:02.193Z,28.5
2018-01-23T05:45:02.300Z,28.6
2018-01-23T05:46:02.385Z,28.6
2018-01-23T05:47:01.996Z,28.7
2018-01-23T05:48:02.332Z,28.7
2018-01-23T05:49:02.068Z,28.7
2018-01-23T05:50:02.057Z,28.8
2018-01-23T05:51:02.517Z,28.8
2018-01-23T05:52:02.535Z,28.9
2018-01-23T05:53:02.608Z,28.9
2018-01-23T05:54:02.679Z,28.9
2018-01-23T05:55:02.418Z,28.9
2018-01-23T05:56:02.474Z,28.9
2018-01-23T05:57:02.580Z,28.9
2018-01-23T05:58:02.949Z,29
2018-01-23T05:59:03.524Z,29
2018-01-23T06:00:02.988Z,29
2018-01-23T06:01:02.963Z,29
2018-01-23T06:02:03.532Z,29
2018-01-23T06:03:02.731Z,29
2018-01-23T06:04:03.117Z,29
2018-01-23T06:05:03.806Z,29.1
2018-01-23T06:06:03.215Z,29.1
2018-01-23T06:07:02.910Z,29.1
2018-01-23T06:08:03.015Z,29.1
2018-01-23T06:09:03.087Z,29.1
2018-01-23T06:10:03.164Z,29.1
2018-01-23T06:11:03.987Z,29.1
2018-01-23T06:12:03.572Z,29.1
2018-01-23T06:13:03.659Z,29.2
2018-01-23T06:14:03.978Z,29.2
2018-01-23T06:15:04.651Z,29.1
2018-01-23T06:16:03.842Z,29.2
2018-01-23T06:17:03.534Z,29.2
2018-01-23T06:18:03.964Z,29.2
2018-01-23T06:19:03.989Z,29.2
2018-01-23T06:20:03.774Z,29.3
2018-01-23T06:21:04.142Z,29.2
2018-01-23T06:22:03.924Z,29.3
2018-01-23T06:23:07.176Z,29.3
2018-01-23T06:24:07.240Z,29.3
2018-01-23T06:25:06.957Z,29.3
2018-01-23T06:26:04.433Z,29.3
2018-01-23T06:27:07.364Z,29.3
2018-01-23T06:28:07.150Z,29.3
2018-01-23T06:29:04.236Z,29.4
2018-01-23T06:30:04.627Z,29.4
2018-01-23T06:31:07.525Z,29.3
2018-01-23T06:32:07.634Z,29.4
2018-01-23T06:33:07.852Z,29.4
2018-01-23T06:34:07.699Z,29.4
2018-01-23T06:35:04.853Z,29.4
2018-01-23T06:36:04.554Z,29.4
2018-01-23T06:37:07.534Z,29.5
2018-01-23T06:38:04.672Z,29.4
2018-01-23T06:39:05.043Z,29.5
2018-01-23T06:40:05.020Z,29.5
2018-01-23T06:41:07.648Z,29.4
2018-01-23T06:42:08.071Z,29.5
2018-01-23T06:43:04.887Z,29.5
2018-01-23T06:44:05.313Z,29.5
2018-01-23T06:45:08.348Z,29.5
2018-01-23T06:46:05.182Z,29.5
2018-01-23T06:47:05.736Z,29.5
2018-01-23T06:48:09.352Z,29.6
2018-01-23T06:49:05.101Z,29.6
2018-01-23T06:50:05.967Z,29.6
2018-01-23T06:51:05.484Z,29.6
2018-01-23T06:52:08.383Z,29.6
2018-01-23T06:53:05.650Z,29.6
2018-01-23T06:54:05.688Z,29.6
2018-01-23T06:55:08.718Z,29.6
2018-01-23T06:56:08.720Z,29.6
2018-01-23T06:57:05.676Z,29.6
2018-01-23T06:58:05.647Z,29.6
2018-01-23T06:59:05.751Z,29.6
2018-01-23T07:00:06.712Z,29.5
2018-01-23T07:01:09.092Z,29.6
2018-01-23T07:02:06.308Z,29.6
2018-01-23T07:03:08.923Z,29.6
2018-01-23T07:04:06.987Z,29.6
2018-01-23T07:05:10.649Z,29.6
2018-01-23T07:06:06.572Z,29.7
2018-01-23T07:07:06.648Z,29.7
2018-01-23T07:08:06.665Z,29.7
2018-01-23T07:09:06.743Z,29.7
2018-01-23T07:52:35.048Z,30.1
2018-01-23T07:53:32.479Z,30.2
2018-01-23T07:54:29.112Z,30.2
2018-01-23T07:55:29.356Z,30.2
2018-01-23T07:56:29.539Z,30.3
2018-01-23T07:57:31.652Z,30.3
2018-01-23T07:58:32.215Z,30.3
2018-01-23T07:59:29.838Z,30.4
2018-01-23T08:00:29.348Z,30.4
2018-01-23T08:01:29.121Z,30.4
2018-01-23T08:02:32.348Z,30.4
2018-01-23T08:03:32.339Z,30.5
2018-01-23T08:04:29.121Z,30.5
2018-01-23T08:05:29.458Z,30.5
2018-01-23T08:06:29.137Z,30.5
2018-01-23T08:07:29.260Z,30.5
2018-01-23T08:08:29.631Z,30.5
2018-01-23T08:09:29.672Z,30.6
2018-01-23T08:10:30.030Z,30.6
2018-01-23T08:11:29.761Z,30.6
2018-01-23T08:12:32.765Z,30.6
2018-01-23T08:13:29.583Z,30.7
2018-01-23T08:14:29.751Z,30.7
2018-01-23T08:15:33.006Z,30.7
2018-01-23T08:16:33.041Z,30.7
2018-01-23T08:17:32.697Z,30.7
2018-01-23T08:18:29.879Z,30.7
2018-01-23T08:19:29.964Z,30.8
2018-01-23T08:20:30.001Z,30.8
2018-01-23T08:21:30.136Z,30.8
2018-01-23T08:22:33.342Z,30.8
2018-01-23T08:23:30.167Z,30.8
2018-01-23T08:24:30.554Z,30.8
2018-01-23T08:25:33.489Z,30.8
2018-01-23T08:26:33.755Z,30.8
2018-01-23T08:27:33.320Z,30.8
2018-01-23T08:28:30.756Z,30.8
2018-01-23T08:29:30.417Z,30.8
2018-01-23T08:30:30.387Z,30.9
2018-01-23T08:31:30.694Z,30.8
2018-01-23T08:32:31.059Z,30.9
2018-01-23T08:33:31.027Z,30.9
2018-01-23T08:34:30.883Z,30.9
2018-01-23T08:35:30.881Z,30.9
2018-01-23T08:36:30.734Z,30.9
2018-01-23T08:37:30.840Z,30.9
2018-01-23T08:38:34.680Z,31
2018-01-23T08:39:34.706Z,31
2018-01-23T08:40:34.933Z,31
2018-01-23T08:41:32.363Z,30.9
2018-01-23T08:42:31.150Z,31
2018-01-23T08:43:30.961Z,31
2018-01-23T08:44:31.195Z,31
2018-01-23T08:45:33.996Z,31
2018-01-23T08:46:31.399Z,31
2018-01-23T08:47:34.363Z,31
2018-01-23T08:48:31.443Z,31
2018-01-23T08:49:34.418Z,31
2018-01-23T08:50:31.274Z,31
2018-01-23T08:51:31.298Z,31
2018-01-23T08:52:34.644Z,31.1
2018-01-23T08:53:34.547Z,31.1
2018-01-23T08:54:31.511Z,31.1
2018-01-23T08:55:34.655Z,30.9
2018-01-23T08:56:31.706Z,31.1
2018-01-23T08:57:34.504Z,31.1
2018-01-23T08:58:34.975Z,31.1
2018-01-23T08:59:34.989Z,31.1
2018-01-23T09:00:31.729Z,31.1
2018-01-23T09:01:32.248Z,31.1
2018-01-23T09:02:32.246Z,31.1
2018-01-23T09:03:35.105Z,31.2
2018-01-23T09:04:32.598Z,31.2
2018-01-23T09:05:32.034Z,31.2
2018-01-23T09:06:34.483Z,31.2
2018-01-23T09:07:36.603Z,31.2
2018-01-23T09:08:32.489Z,31.2
2018-01-23T09:09:33.284Z,31.3
2018-01-23T09:10:34.983Z,31.3
2018-01-23T09:11:36.095Z,31.3
2018-01-23T09:12:37.072Z,31.3
2018-01-23T09:13:32.596Z,31.3
2018-01-23T09:14:32.492Z,31.3
2018-01-23T09:15:33.135Z,31.4
2018-01-23T09:16:32.971Z,31.4
2018-01-23T09:17:33.059Z,31.4
2018-01-23T09:18:35.903Z,31.4
2018-01-23T09:19:32.678Z,31.4
2018-01-23T09:20:33.270Z,31.4
2018-01-23T09:21:34.871Z,31.4
2018-01-23T09:22:36.209Z,31.4
2018-01-23T09:23:36.078Z,31.4
2018-01-23T09:24:33.333Z,31.1
2018-01-23T09:25:33.215Z,31.4
2018-01-23T09:26:33.324Z,31.4
2018-01-23T09:27:34.372Z,31.4
2018-01-23T09:28:33.333Z,31.4
2018-01-23T09:29:33.734Z,31.5
2018-01-23T09:30:33.510Z,31.5
2018-01-23T09:31:33.192Z,31.5
2018-01-23T09:32:38.285Z,31.5
2018-01-23T09:33:34.671Z,31.5
2018-01-23T09:34:34.459Z,31.5
2018-01-23T09:35:35.037Z,31.6
2018-01-23T09:36:38.228Z,31.5
2018-01-23T09:37:36.337Z,31.6
2018-01-23T09:38:40.287Z,31.6
2018-01-23T09:39:44.607Z,31.5
2018-01-23T09:40:39.823Z,31.6
2018-01-23T09:41:37.155Z,31.6
2018-01-23T09:42:37.021Z,31.6
2018-01-23T09:43:37.022Z,31.6
2018-01-23T09:44:34.363Z,31.6
2018-01-23T09:45:33.957Z,31.7
2018-01-23T09:46:37.354Z,31.7
2018-01-23T09:47:36.922Z,31.7
2018-01-23T10:09:38.789Z,29
2018-01-23T10:10:38.642Z,28.5
2018-01-23T10:11:38.708Z,28.3
2018-01-23T10:12:35.596Z,28
2018-01-23T10:13:35.659Z,27.8
2018-01-23T10:14:38.825Z,27.5
2018-01-23T10:15:35.933Z,27.5
2018-01-23T10:16:35.883Z,27.4
2018-01-23T10:17:36.481Z,27.3
2018-01-23T10:18:39.452Z,27.1
2018-01-23T10:19:39.594Z,27
2018-01-23T10:20:36.777Z,26.9
2018-01-23T10:21:39.440Z,26.8
2018-01-23T10:22:36.664Z,26.6
2018-01-23T10:23:39.480Z,26.6
2018-01-23T10:24:36.475Z,26.4
2018-01-23T10:25:36.525Z,26.4
2018-01-23T10:26:37.100Z,26.2
2018-01-23T10:27:36.913Z,26.2
2018-01-23T10:28:36.684Z,26.2
2018-01-23T10:29:36.902Z,26.2
2018-01-23T10:30:37.447Z,26.2
2018-01-23T10:31:37.178Z,26.2
2018-01-23T10:32:36.981Z,26.1
2018-01-23T10:33:37.086Z,26.1
2018-01-23T10:34:37.915Z,26
2018-01-23T10:35:38.920Z,26
2018-01-23T10:36:43.745Z,25.9
2018-01-23T10:37:39.183Z,25.9
2018-01-23T10:38:38.489Z,25.8
2018-01-23T10:39:39.161Z,25.8
2018-01-23T10:40:37.807Z,25.7
2018-01-23T10:41:40.799Z,25.7
2018-01-23T10:42:41.019Z,25.7
2018-01-23T10:43:37.883Z,25.7
2018-01-23T10:44:37.917Z,25.6
2018-01-23T10:45:43.531Z,25.7
2018-01-23T10:46:41.005Z,25.7
2018-01-23T10:47:39.202Z,25.7
2018-01-23T10:48:44.398Z,25.8
2018-01-23T10:49:44.646Z,25.7
2018-01-23T10:50:43.224Z,25.7
2018-01-23T10:51:42.341Z,25.6
2018-01-23T10:52:39.038Z,25.6
2018-01-23T10:53:42.078Z,25.5
2018-01-23T10:54:38.550Z,25.5
2018-01-23T10:55:39.879Z,25.5
2018-01-23T10:56:41.572Z,25.5
2018-01-23T10:57:45.708Z,25.5
2018-01-23T10:58:40.328Z,25.5
2018-01-23T10:59:42.197Z,25.5
2018-01-23T11:00:40.657Z,25.5
2018-01-23T11:01:43.293Z,25.4
2018-01-23T11:02:43.369Z,25.3
2018-01-23T11:03:42.194Z,25.2
2018-01-23T11:04:43.768Z,25.2
2018-01-23T11:05:39.402Z,25.1
2018-01-23T11:06:42.490Z,25.1
2018-01-23T11:07:38.990Z,25.2
2018-01-23T11:08:39.601Z,25.2
2018-01-23T11:09:40.327Z,25.2
2018-01-23T11:10:39.541Z,25.3
2018-01-23T11:11:39.706Z,25.2
2018-01-23T11:12:39.257Z,25.3
2018-01-23T11:13:40.726Z,25.4
2018-01-23T11:14:39.543Z,25.5
2018-01-23T11:15:40.022Z,25.6
2018-01-23T11:16:42.372Z,25.6
2018-01-23T11:17:42.119Z,25.6
2018-01-23T11:18:43.145Z,25.6
2018-01-23T11:19:39.717Z,25.6
2018-01-23T11:20:39.259Z,25.5
2018-01-23T11:21:42.468Z,25.5
2018-01-23T11:22:42.718Z,25.5
2018-01-23T11:23:39.566Z,25.5
2018-01-23T11:24:39.399Z,25.4
2018-01-23T11:25:42.686Z,25.3
2018-01-23T11:26:42.962Z,25.2
2018-01-23T11:27:39.831Z,25.1
2018-01-23T11:28:39.982Z,25.1
2018-01-23T11:29:40.275Z,25.1
2018-01-23T11:30:43.015Z,25
2018-01-23T11:31:39.862Z,25
2018-01-23T11:32:43.146Z,25.1
2018-01-23T11:33:40.386Z,25.4
2018-01-23T11:34:40.264Z,25.7
2018-01-23T11:35:43.548Z,26
2018-01-23T11:36:43.493Z,26.2
2018-01-23T11:37:40.873Z,26.5
2018-01-23T11:38:40.820Z,26.7
2018-01-23T11:39:43.869Z,26.9
2018-01-23T11:40:40.963Z,27.1
2018-01-23T11:41:40.974Z,27.3
2018-01-23T11:42:40.922Z,27.5
2018-01-23T11:43:41.419Z,27.6
2018-01-23T11:44:44.144Z,27.7
2018-01-23T11:45:44.680Z,27.9
2018-01-23T11:46:41.065Z,28
2018-01-23T11:47:44.019Z,28.1
2018-01-23T11:48:41.062Z,28.3
2018-01-23T11:49:43.987Z,28.4
2018-01-23T11:50:44.228Z,28.5
2018-01-23T11:51:40.887Z,28.6
2018-01-23T11:52:41.091Z,28.6
2018-01-23T11:53:41.163Z,28.7
2018-01-23T11:54:43.926Z,28.8
2018-01-23T11:55:41.476Z,28.9
2018-01-23T11:56:44.468Z,28.9
2018-01-23T11:57:44.533Z,29
2018-01-23T11:58:44.774Z,29.1
2018-01-23T11:59:41.621Z,29.2
2018-01-23T12:00:42.148Z,29.3
2018-01-23T12:01:42.678Z,29.4
2018-01-23T12:02:45.342Z,29.4
2018-01-23T12:03:41.521Z,29.4
2018-01-23T12:04:41.526Z,29.5
2018-01-23T12:05:41.814Z,29.5
2018-01-23T12:06:43.570Z,29.5
2018-01-23T12:07:45.499Z,29.5
2018-01-23T12:08:45.806Z,29.5
2018-01-23T12:09:42.508Z,29.2
2018-01-23T12:10:42.990Z,29.5
2018-01-23T12:11:42.762Z,29.2
2018-01-23T12:12:45.014Z,28.9
2018-01-23T12:13:42.255Z,28.6
2018-01-23T12:14:44.866Z,28.3
2018-01-23T12:15:45.346Z,28
2018-01-23T12:16:42.234Z,27.8
2018-01-23T12:17:42.774Z,27.6
2018-01-23T12:18:43.016Z,27.4
2018-01-23T12:19:42.303Z,27.2
2018-01-23T12:20:43.215Z,27
2018-01-23T12:21:45.541Z,26.8
2018-01-23T12:22:45.569Z,26.7
2018-01-23T12:23:43.148Z,26.6
2018-01-23T12:24:46.216Z,26.7
2018-01-23T12:25:42.437Z,26.7
2018-01-23T12:26:42.606Z,26.7
2018-01-23T12:27:42.608Z,26.7
2018-01-23T12:28:42.715Z,26.6
2018-01-23T12:29:45.564Z,26.5
2018-01-23T12:30:45.643Z,26.5
2018-01-23T12:31:46.078Z,26.5
2018-01-23T12:32:43.094Z,26.4
2018-01-23T12:33:46.228Z,26.3
2018-01-23T12:34:45.967Z,26.1
2018-01-23T12:35:46.324Z,26
2018-01-23T12:36:43.178Z,25.9
2018-01-23T12:37:46.467Z,26
2018-01-23T12:38:43.958Z,26
2018-01-23T12:39:47.048Z,25.9
2018-01-23T12:40:44.575Z,25.8
2018-01-23T12:41:48.098Z,25.7
2018-01-23T12:42:46.741Z,25.7
2018-01-23T12:43:46.494Z,25.7
2018-01-23T12:44:44.357Z,25.7
2018-01-23T12:45:43.685Z,25.7
2018-01-23T12:46:43.856Z,25.8
2018-01-23T12:47:44.064Z,25.8
2018-01-23T12:48:43.914Z,25.9
2018-01-23T12:49:44.266Z,25.9
2018-01-23T12:50:47.463Z,26
2018-01-23T12:51:43.978Z,25.9
2018-01-23T12:52:44.014Z,25.9
2018-01-23T12:53:44.885Z,25.8
2018-01-23T12:54:44.281Z,25.7
2018-01-23T12:55:44.886Z,25.7
2018-01-23T12:56:44.736Z,25.7
2018-01-23T12:57:47.740Z,25.7
2018-01-23T12:58:44.687Z,25.7
2018-01-23T12:59:44.519Z,25.6
2018-01-23T13:00:47.993Z,25.6
2018-01-23T13:01:44.952Z,25.5
2018-01-23T13:02:47.997Z,25.6
2018-01-23T13:03:44.588Z,25.5
2018-01-23T13:04:45.078Z,25.6
2018-01-23T13:05:44.875Z,25.6
2018-01-23T13:06:45.307Z,25.6
2018-01-23T13:07:45.296Z,25.5
2018-01-23T13:08:48.239Z,25.6
2018-01-23T13:09:45.286Z,25.5
2018-01-23T13:10:45.427Z,25.5
2018-01-23T13:11:48.535Z,25.5
2018-01-23T13:12:48.029Z,25.5
2018-01-23T13:13:48.129Z,25.4
2018-01-23T13:14:45.543Z,25.4
2018-01-23T13:15:48.162Z,25.3
2018-01-23T13:16:48.575Z,25.3
2018-01-23T13:17:46.330Z,25.4
2018-01-23T13:18:48.766Z,25.4
2018-01-23T13:19:48.180Z,25.4
2018-01-23T13:20:45.754Z,25.4
2018-01-23T13:21:46.520Z,25.4
2018-01-23T13:22:48.609Z,25.5
2018-01-23T13:23:46.083Z,25.5
2018-01-23T13:24:46.178Z,25.5
2018-01-23T13:25:45.849Z,25.5
2018-01-23T13:26:46.331Z,25.4
2018-01-23T13:27:49.713Z,25.4
2018-01-23T13:28:45.928Z,25.3
2018-01-23T13:29:49.551Z,25.4
2018-01-23T13:30:49.446Z,25.4
2018-01-23T13:31:46.168Z,25.5
2018-01-23T13:32:46.487Z,25.7
2018-01-23T13:33:49.095Z,26.1
2018-01-23T13:34:49.154Z,26.8
2018-01-23T13:35:49.479Z,27.4
2018-01-23T13:36:50.278Z,28.2
2018-01-23T13:37:49.493Z,28.9
2018-01-23T13:38:50.288Z,29.5
2018-01-23T13:39:46.784Z,30.1
2018-01-23T13:40:46.874Z,30.7
2018-01-23T13:41:46.729Z,31.2
2018-01-23T13:42:46.482Z,31.5
2018-01-23T13:43:46.682Z,31.8
2018-01-23T13:44:49.718Z,32
2018-01-23T13:45:47.625Z,31.9
2018-01-23T13:46:46.711Z,32
2018-01-23T13:47:47.242Z,32.2
2018-01-23T13:48:46.878Z,32.2
2018-01-23T13:49:47.049Z,31.8
2018-01-23T13:50:50.943Z,31.4
2018-01-23T13:51:50.406Z,31
2018-01-23T13:52:47.510Z,30.7
2018-01-23T13:53:48.037Z,30.4
2018-01-23T13:54:47.564Z,30.1
2018-01-23T13:55:54.941Z,29.9
2018-01-23T13:56:48.926Z,29.7
2018-01-23T13:57:58.231Z,29.6
2018-01-23T13:58:57.235Z,29.5
2018-01-23T13:59:47.823Z,29.3
2018-01-23T14:00:53.915Z,29.3
2018-01-23T14:01:47.855Z,29.2
2018-01-23T14:02:48.384Z,29.1
2018-01-23T14:03:50.836Z,29.1
2018-01-23T14:04:47.621Z,29.1
2018-01-23T14:05:48.571Z,29
2018-01-23T14:06:51.793Z,29
2018-01-23T14:07:47.921Z,29
2018-01-23T14:08:49.168Z,29
2018-01-23T14:09:48.897Z,29
2018-01-23T14:10:48.346Z,29
2018-01-23T14:11:48.234Z,29
2018-01-23T14:12:51.242Z,29
2018-01-23T14:13:48.604Z,29
2018-01-23T14:14:48.407Z,29
2018-01-23T14:15:57.469Z,29
2018-01-23T14:16:55.029Z,29
2018-01-23T14:17:54.408Z,29
2018-01-23T14:18:51.151Z,29
2018-01-23T14:19:51.913Z,29
2018-01-23T14:20:51.585Z,29
2018-01-23T14:21:51.363Z,29
2018-01-23T14:22:48.648Z,29
2018-01-23T14:23:48.820Z,29
2018-01-23T14:24:48.682Z,29
2018-01-23T14:25:48.665Z,28.9
2018-01-23T14:26:52.312Z,29
2018-01-23T14:27:52.752Z,28.9
2018-01-23T14:28:49.688Z,28.9